createdAt,value
2017-05-19T00:00:21.525Z,90.19
2017-05-19T00:01:21.525Z,90.28
2017-05-19T00:02:21.554Z,90.57
2017-05-19T00:03:21.595Z,89.71
2017-05-19T00:04:21.616Z,89.04
2017-05-19T00:05:21.659Z,90.19
2017-05-19T00:06:21.687Z,90.19
2017-05-19T00:07:21.734Z,89.9
2017-05-19T00:08:21.781Z,90.76
2017-05-19T00:09:21.795Z,89.51
2017-05-19T00:10:21.829Z,88.46
2017-05-19T00:11:21.889Z,89.61
2017-05-19T00:12:21.911Z,89.9
2017-05-19T00:13:21.957Z,88.42
2017-05-19T00:14:21.980Z,88.84
2017-05-19T00:15:22.036Z,89.8
2017-05-19T00:16:22.082Z,89.23
2017-05-19T00:17:22.096Z,88.75
2017-05-19T00:18:22.136Z,88.17
2017-05-19T00:19:22.160Z,88.27
2017-05-19T00:20:22.217Z,88.37
2017-05-19T00:21:22.246Z,87.7
2017-05-19T00:22:22.288Z,88.17
2017-05-19T00:23:22.321Z,88.27
2017-05-19T00:24:22.360Z,88.75
2017-05-19T00:25:22.373Z,88.46
2017-05-19T00:26:22.417Z,87.98
2017-05-19T00:27:22.469Z,87.98
2017-05-19T00:28:22.474Z,89.42
2017-05-19T00:29:22.539Z,88.94
2017-05-19T00:30:22.579Z,87.79
2017-05-19T00:31:22.616Z,87.5
2017-05-19T00:32:22.663Z,87.17
2017-05-19T00:33:22.691Z,88.08
2017-05-19T00:34:22.831Z,87.94
2017-05-19T00:35:22.757Z,87.46
2017-05-19T00:36:22.777Z,86.88
2017-05-19T00:37:22.844Z,86.88
2017-05-19T00:38:22.860Z,86.88
2017-05-19T00:39:22.902Z,86.88
2017-05-19T00:40:22.937Z,88.23
2017-05-19T00:41:22.977Z,87.65
2017-05-19T00:42:23.014Z,88.8
2017-05-19T00:43:23.046Z,88.23
2017-05-19T00:44:23.065Z,87.74
2017-05-19T00:45:23.111Z,87.17
2017-05-19T00:46:23.155Z,87.27
2017-05-19T00:47:23.182Z,87.17
2017-05-19T00:48:23.231Z,86.41
2017-05-19T00:49:23.263Z,86.21
2017-05-19T00:50:23.278Z,86.41
2017-05-19T00:51:23.339Z,86.12
2017-05-19T00:52:23.427Z,86.21
2017-05-19T00:53:23.390Z,86.41
2017-05-19T00:54:23.444Z,86.21
2017-05-19T00:55:23.483Z,86.5
2017-05-19T00:56:23.520Z,89.57
2017-05-19T00:57:23.538Z,89.47
2017-05-19T00:58:23.597Z,90.05
2017-05-19T00:59:23.624Z,89.18
2017-05-19T01:00:23.661Z,88.8
2017-05-19T01:01:23.684Z,89.37
2017-05-19T01:02:23.721Z,88.51
2017-05-19T01:03:23.779Z,89.9
2017-05-19T01:04:23.783Z,89.95
2017-05-19T01:05:23.848Z,89.72
2017-05-19T01:06:23.879Z,89.9
2017-05-19T01:07:23.898Z,90.58
2017-05-19T01:08:23.944Z,90.19
2017-05-19T01:09:23.993Z,89.57
2017-05-19T01:10:23.997Z,89.72
2017-05-19T01:11:24.063Z,88.85
2017-05-19T01:12:24.098Z,89.9
2017-05-19T01:13:24.137Z,91.25
2017-05-19T01:14:24.166Z,90.67
2017-05-19T01:15:24.364Z,91.92
2017-05-19T01:16:24.238Z,90.58
2017-05-19T01:17:24.274Z,89.9
2017-05-19T01:18:24.355Z,89.52
2017-05-19T01:19:24.353Z,89.62
2017-05-19T01:20:24.382Z,91.15
2017-05-19T01:21:24.453Z,90.58
2017-05-19T01:22:24.457Z,89.52
2017-05-19T01:23:24.491Z,89.33
2017-05-19T01:24:24.606Z,88.66
2017-05-19T01:25:24.565Z,87.9
2017-05-19T01:26:24.604Z,87.61
2017-05-19T01:27:24.619Z,87.51
2017-05-19T01:28:24.673Z,87.7
2017-05-19T01:29:24.708Z,87.7
2017-05-19T01:30:24.836Z,87.41
2017-05-19T01:31:24.777Z,87.51
2017-05-19T01:32:24.810Z,87.8
2017-05-19T01:33:24.857Z,87.03
2017-05-19T01:34:24.896Z,87.41
2017-05-19T01:35:24.910Z,87.32
2017-05-19T01:36:24.962Z,87.13
2017-05-19T01:37:24.997Z,87.41
2017-05-19T01:38:25.035Z,87.32
2017-05-19T01:39:25.051Z,86.94
2017-05-19T01:40:25.107Z,89.23
2017-05-19T01:41:25.149Z,90.58
2017-05-19T01:42:25.169Z,90.86
2017-05-19T01:43:25.213Z,92.3
2017-05-19T01:44:25.235Z,92.49
2017-05-19T01:45:25.280Z,92.87
2017-05-19T01:46:25.312Z,92.97
2017-05-19T01:47:25.378Z,93.26
2017-05-19T01:48:25.372Z,92.83
2017-05-19T01:49:25.410Z,93.59
2017-05-19T01:50:25.461Z,93.16
2017-05-19T01:51:25.507Z,92.97
2017-05-19T01:52:25.537Z,92.4
2017-05-19T01:53:25.565Z,92.01
2017-05-19T01:54:25.607Z,91.49
2017-05-19T01:55:25.639Z,90.86
2017-05-19T01:56:25.672Z,90.29
2017-05-19T01:57:25.708Z,90.29
2017-05-19T01:58:25.754Z,90
2017-05-19T01:59:25.792Z,90.86
2017-05-19T02:00:25.813Z,91.53
2017-05-19T02:01:25.845Z,90.77
2017-05-19T02:02:25.902Z,91.63
2017-05-19T02:03:25.923Z,91.34
2017-05-19T02:04:25.967Z,91.97
2017-05-19T02:05:25.995Z,91.68
2017-05-19T02:06:26.013Z,90.72
2017-05-19T02:07:26.056Z,90.63
2017-05-19T02:08:26.103Z,91.49
2017-05-19T02:09:26.116Z,92.25
2017-05-19T02:10:26.176Z,92.54
2017-05-19T02:11:26.220Z,92.35
2017-05-19T02:12:26.247Z,92.06
2017-05-19T02:13:26.288Z,90.82
2017-05-19T02:14:26.321Z,90.53
2017-05-19T02:15:26.355Z,89.95
2017-05-19T02:16:26.393Z,89.58
2017-05-19T02:17:26.426Z,89.95
2017-05-19T02:18:26.539Z,91.2
2017-05-19T02:19:26.548Z,93.69
2017-05-19T02:20:26.522Z,93.79
2017-05-19T02:21:26.568Z,93.21
2017-05-19T02:22:26.611Z,93.21
2017-05-19T02:23:26.617Z,92.83
2017-05-19T02:24:26.677Z,93.02
2017-05-19T02:25:26.713Z,92.44
2017-05-19T02:26:26.738Z,91.2
2017-05-19T02:27:26.779Z,90.44
2017-05-19T02:28:26.829Z,90.53
2017-05-19T02:29:26.856Z,89.95
2017-05-19T02:30:26.887Z,91.68
2017-05-19T02:31:26.911Z,92.16
2017-05-19T02:32:26.962Z,93.3
2017-05-19T02:33:26.997Z,93.21
2017-05-19T02:34:27.033Z,93.02
2017-05-19T02:35:27.043Z,92.44
2017-05-19T02:36:27.111Z,92.16
2017-05-19T02:37:27.122Z,93.02
2017-05-19T02:38:27.173Z,92.54
2017-05-19T02:39:27.210Z,91.87
2017-05-19T02:40:27.237Z,91.68
2017-05-19T02:41:27.285Z,92.92
2017-05-19T02:42:27.316Z,93.21
2017-05-19T02:43:27.341Z,92.44
2017-05-19T02:44:27.369Z,93.16
2017-05-19T02:45:27.431Z,93.02
2017-05-19T02:46:27.460Z,91.83
2017-05-19T02:47:27.492Z,91.63
2017-05-19T02:48:27.533Z,91.06
2017-05-19T02:49:27.562Z,90.77
2017-05-19T02:50:27.613Z,90.34
2017-05-19T02:51:27.633Z,90.72
2017-05-19T02:52:27.669Z,90.77
2017-05-19T02:53:27.710Z,90.87
2017-05-19T02:54:27.725Z,90.39
2017-05-19T02:55:27.773Z,90.2
2017-05-19T02:56:27.810Z,89.76
2017-05-19T02:57:27.832Z,89.91
2017-05-19T02:58:27.882Z,89.95
2017-05-19T02:59:27.902Z,90.48
2017-05-19T03:00:27.942Z,90.39
2017-05-19T03:01:27.988Z,90.96
2017-05-19T03:02:28.033Z,90.58
2017-05-19T03:03:28.064Z,90.96
2017-05-19T03:04:28.095Z,90.58
2017-05-19T03:05:28.138Z,89.81
2017-05-19T03:06:28.152Z,89.53
2017-05-19T03:07:28.204Z,89.67
2017-05-19T03:08:28.237Z,90.44
2017-05-19T03:09:28.278Z,90.05
2017-05-19T03:10:28.292Z,91.49
2017-05-19T03:11:28.357Z,93.12
2017-05-19T03:12:28.379Z,92.83
2017-05-19T03:13:28.417Z,92.16
2017-05-19T03:14:28.429Z,91.3
2017-05-19T03:15:28.480Z,91.58
2017-05-19T03:16:28.531Z,91.39
2017-05-19T03:17:28.535Z,90.44
2017-05-19T03:18:28.597Z,90.44
2017-05-19T03:19:28.631Z,90.1
2017-05-19T03:20:28.661Z,90.63
2017-05-19T03:21:28.702Z,90.34
2017-05-19T03:22:28.739Z,91.39
2017-05-19T03:23:28.734Z,90.44
2017-05-19T03:24:28.814Z,90.53
2017-05-19T03:25:28.846Z,89.86
2017-05-19T03:26:28.851Z,89.95
2017-05-19T03:27:28.909Z,89.58
2017-05-19T03:28:28.948Z,90.91
2017-05-19T03:29:28.983Z,91.68
2017-05-19T03:30:29.017Z,93.21
2017-05-19T03:31:29.037Z,92.83
2017-05-19T03:32:29.088Z,92.35
2017-05-19T03:33:29.127Z,92.06
2017-05-19T03:34:29.138Z,91.3
2017-05-19T03:35:29.193Z,91.01
2017-05-19T03:36:29.227Z,90.15
2017-05-19T03:37:29.235Z,90.3
2017-05-19T03:38:29.300Z,91.58
2017-05-19T03:39:29.338Z,93.4
2017-05-19T03:40:29.371Z,93.69
2017-05-19T03:41:29.416Z,92.92
2017-05-19T03:42:29.444Z,92.16
2017-05-19T03:43:29.478Z,92.16
2017-05-19T03:44:29.507Z,93.12
2017-05-19T03:45:29.553Z,92.92
2017-05-19T03:46:29.582Z,93.3
2017-05-19T03:47:29.618Z,93.59
2017-05-19T03:48:29.656Z,93.21
2017-05-19T03:49:29.659Z,92.73
2017-05-19T03:50:29.728Z,91.58
2017-05-19T03:51:29.744Z,91.11
2017-05-19T03:52:29.796Z,90.82
2017-05-19T03:53:29.840Z,90.53
2017-05-19T03:54:29.855Z,90.72
2017-05-19T03:55:29.903Z,90.91
2017-05-19T03:56:29.919Z,90.82
2017-05-19T03:57:29.974Z,91.01
2017-05-19T03:58:30.009Z,91.34
2017-05-19T03:59:30.048Z,91.53
2017-05-19T04:00:30.334Z,92.11
2017-05-19T04:01:30.116Z,92.11
2017-05-19T04:02:30.147Z,92.97
2017-05-19T04:03:30.172Z,92.35
2017-05-19T04:04:30.223Z,91.82
2017-05-19T04:05:30.245Z,91.92
2017-05-19T04:06:30.293Z,91.05
2017-05-19T04:07:30.316Z,90.48
2017-05-19T04:08:30.358Z,89.72
2017-05-19T04:09:30.399Z,90.39
2017-05-19T04:10:30.423Z,90.77
2017-05-19T04:11:30.468Z,92.97
2017-05-19T04:12:30.502Z,94.5
2017-05-19T04:13:30.548Z,94.5
2017-05-19T04:14:30.543Z,94.69
2017-05-19T04:15:30.613Z,94.6
2017-05-19T04:16:30.647Z,93.16
2017-05-19T04:17:30.685Z,92.87
2017-05-19T04:18:30.747Z,92.58
2017-05-19T04:19:30.734Z,92.11
2017-05-19T04:20:30.791Z,91.77
2017-05-19T04:21:30.831Z,90.86
2017-05-19T04:22:30.856Z,91
2017-05-19T04:23:30.902Z,91.29
2017-05-19T04:24:30.942Z,91.77
2017-05-19T04:25:30.969Z,91
2017-05-19T04:26:31.007Z,91.1
2017-05-19T04:27:31.047Z,90.14
2017-05-19T04:28:31.081Z,89.66
2017-05-19T04:29:31.301Z,91
2017-05-19T04:30:31.148Z,92.25
2017-05-19T04:31:31.361Z,91.49
2017-05-19T04:32:31.224Z,91.82
2017-05-19T04:33:31.259Z,91.67
2017-05-19T04:34:31.295Z,92.3
2017-05-19T04:35:31.329Z,92.2
2017-05-19T04:36:31.347Z,91.43
2017-05-19T04:37:31.403Z,90.86
2017-05-19T04:38:31.419Z,90.76
2017-05-19T04:39:31.460Z,91.53
2017-05-19T04:40:31.510Z,91.43
2017-05-19T04:41:31.549Z,91.34
2017-05-19T04:42:31.582Z,92.1
2017-05-19T04:43:31.622Z,91.53
2017-05-19T04:44:31.658Z,90.76
2017-05-19T04:45:31.683Z,90.52
2017-05-19T04:46:31.731Z,89.47
2017-05-19T04:47:31.762Z,89.18
2017-05-19T04:48:31.799Z,89.27
2017-05-19T04:49:31.833Z,88.51
2017-05-19T04:50:31.866Z,89.37
2017-05-19T04:51:31.911Z,88.6
2017-05-19T04:52:31.926Z,87.88
2017-05-19T04:53:31.962Z,87.78
2017-05-19T04:54:32.025Z,87.78
2017-05-19T04:55:32.050Z,87.78
2017-05-19T04:56:32.087Z,87.49
2017-05-19T04:57:32.125Z,87.78
2017-05-19T04:58:32.163Z,87.21
2017-05-19T04:59:32.199Z,87.68
2017-05-19T05:00:32.316Z,87.78
2017-05-19T05:01:32.269Z,87.3
2017-05-19T05:02:32.560Z,87.3
2017-05-19T05:03:32.348Z,87.78
2017-05-19T05:04:32.381Z,87.54
2017-05-19T05:05:32.418Z,87.21
2017-05-19T05:06:32.457Z,87.44
2017-05-19T05:07:32.488Z,87.05
2017-05-19T05:08:32.532Z,86.38
2017-05-19T05:09:32.560Z,86.58
2017-05-19T05:10:32.600Z,86.68
2017-05-19T05:11:32.641Z,86.48
2017-05-19T05:12:32.666Z,86.38
2017-05-19T05:13:32.709Z,85.91
2017-05-19T05:14:32.750Z,85.91
2017-05-19T05:15:32.769Z,85.71
2017-05-19T05:16:32.796Z,86.05
2017-05-19T05:17:32.860Z,85.08
2017-05-19T05:18:32.903Z,83.93
2017-05-19T05:19:32.924Z,83.49
2017-05-19T05:20:33.011Z,82.53
2017-05-19T05:21:33.005Z,82.48
2017-05-19T05:22:33.238Z,81.81
2017-05-19T05:23:33.063Z,80.98
2017-05-19T05:24:33.296Z,79.48
2017-05-19T05:25:33.158Z,78.94
2017-05-19T05:26:33.191Z,76.96
2017-05-19T05:27:33.225Z,76.09
2017-05-19T05:28:33.298Z,75.84
2017-05-19T05:29:33.301Z,74.78
2017-05-19T05:30:33.433Z,75.36
2017-05-19T05:31:33.360Z,74.97
2017-05-19T05:32:33.417Z,74.68
2017-05-19T05:33:33.459Z,74.97
2017-05-19T05:34:33.498Z,75.07
2017-05-19T05:35:33.534Z,74.97
2017-05-19T05:36:33.550Z,73.66
2017-05-19T05:37:33.606Z,72.83
2017-05-19T05:38:33.656Z,71.86
2017-05-19T05:39:33.685Z,71.7
2017-05-19T05:40:33.725Z,71.51
2017-05-19T05:41:33.757Z,71.96
2017-05-19T05:42:33.797Z,72.54
2017-05-19T05:43:33.842Z,72.92
2017-05-19T05:44:33.860Z,72.83
2017-05-19T05:45:34.068Z,72.83
2017-05-19T05:46:33.963Z,73.18
2017-05-19T05:47:33.991Z,73.18
2017-05-19T05:48:34.029Z,73.27
2017-05-19T05:49:34.047Z,73.57
2017-05-19T05:50:34.105Z,72.99
2017-05-19T05:51:34.154Z,72.89
2017-05-19T05:52:34.188Z,72.15
2017-05-19T05:53:34.228Z,70.48
2017-05-19T05:54:34.281Z,69.17
2017-05-19T05:55:34.309Z,68.33
2017-05-19T05:56:34.339Z,68.24
2017-05-19T05:57:34.360Z,68.62
2017-05-19T05:58:34.402Z,68.24
2017-05-19T05:59:34.514Z,66.72
2017-05-19T06:00:36.408Z,65.11
2017-05-19T06:01:34.519Z,63.82
2017-05-19T06:02:34.585Z,63.07
2017-05-19T06:03:34.599Z,62.69
2017-05-19T06:04:34.655Z,63.43
2017-05-19T06:05:34.690Z,64.2
2017-05-19T06:06:34.730Z,64.5
2017-05-19T06:07:34.750Z,64.95
2017-05-19T06:08:34.819Z,65.14
2017-05-19T06:09:34.869Z,66.66
2017-05-19T06:10:34.896Z,67.11
2017-05-19T06:11:34.931Z,66.53
2017-05-19T06:12:34.946Z,64.82
2017-05-19T06:13:35.011Z,63.04
2017-05-19T06:14:35.056Z,60.52
2017-05-19T06:15:35.087Z,57.69
2017-05-19T06:16:35.130Z,55.93
2017-05-19T06:17:35.149Z,53.75
2017-05-19T06:18:35.213Z,52.92
2017-05-19T06:19:35.250Z,51.39
2017-05-19T06:20:35.311Z,50.16
2017-05-19T06:21:35.335Z,50.16
2017-05-19T06:22:35.366Z,49.61
2017-05-19T06:23:35.402Z,48.46
2017-05-19T06:24:35.458Z,47.33
2017-05-19T06:25:35.505Z,47.36
2017-05-19T06:26:35.548Z,46.42
2017-05-19T06:27:35.582Z,45.56
2017-05-19T06:28:35.632Z,44.51
2017-05-19T06:29:35.690Z,44.9
2017-05-19T06:30:35.717Z,44.73
2017-05-19T06:31:35.762Z,44.04
2017-05-19T06:32:36.143Z,43.94
2017-05-19T06:33:35.853Z,43.94
2017-05-19T06:34:35.892Z,43.57
2017-05-19T06:35:35.935Z,43.19
2017-05-19T06:36:35.961Z,42.41
2017-05-19T06:37:36.022Z,43
2017-05-19T06:38:36.070Z,42.33
2017-05-19T06:39:36.107Z,42.14
2017-05-19T06:40:36.158Z,43.29
2017-05-19T06:41:36.199Z,43.35
2017-05-19T06:42:36.562Z,43.45
2017-05-19T06:43:36.290Z,43.15
2017-05-19T06:44:36.333Z,43.18
2017-05-19T06:45:36.374Z,42.98
2017-05-19T06:46:36.420Z,43.37
2017-05-19T06:47:36.451Z,42.41
2017-05-19T06:48:36.504Z,42.04
2017-05-19T06:49:36.560Z,41.84
2017-05-19T06:50:36.562Z,41.17
2017-05-19T06:51:36.642Z,41.49
2017-05-19T06:52:36.693Z,41.49
2017-05-19T06:53:36.736Z,40.33
2017-05-19T06:54:36.756Z,39.56
2017-05-19T06:55:36.972Z,39.47
2017-05-19T06:56:36.852Z,39.58
2017-05-19T06:57:36.913Z,39.7
2017-05-19T06:58:36.959Z,39.11
2017-05-19T06:59:37.003Z,39.32
2017-05-19T07:00:46.121Z,37.57
2017-05-19T07:01:37.532Z,37.59
2017-05-19T07:02:37.427Z,38.75
2017-05-19T07:03:37.444Z,38.85
2017-05-19T07:04:37.449Z,38.26
2017-05-19T07:05:37.533Z,38.35
2017-05-19T07:06:37.560Z,36.9
2017-05-19T07:07:37.632Z,37.39
2017-05-19T07:08:37.670Z,37.87
2017-05-19T07:09:37.709Z,37.74
2017-05-19T07:10:37.767Z,38.34
2017-05-19T07:11:37.805Z,38.24
2017-05-19T07:12:38.189Z,38.79
2017-05-19T07:13:37.902Z,38.6
2017-05-19T07:14:37.944Z,38.6
2017-05-19T07:15:37.988Z,38.81
2017-05-19T07:16:38.036Z,39.26
2017-05-19T07:17:38.064Z,38.85
2017-05-19T07:18:38.101Z,38.51
2017-05-19T07:19:38.165Z,37.66
2017-05-19T07:20:38.274Z,37.29
2017-05-19T07:21:38.268Z,37.01
2017-05-19T07:22:38.307Z,36.8
2017-05-19T07:23:38.356Z,36.82
2017-05-19T07:24:38.400Z,36.22
2017-05-19T07:25:38.427Z,37.21
2017-05-19T07:26:38.591Z,37.19
2017-05-19T07:27:38.545Z,37.19
2017-05-19T07:28:38.570Z,36.71
2017-05-19T07:29:38.640Z,36.44
2017-05-19T07:30:38.671Z,36.71
2017-05-19T07:31:38.722Z,36.54
2017-05-19T07:32:38.759Z,35.37
2017-05-19T07:33:38.814Z,35.75
2017-05-19T07:34:38.869Z,35.66
2017-05-19T07:35:38.938Z,36.14
2017-05-19T07:36:39.061Z,36.12
2017-05-19T07:37:39.004Z,35.94
2017-05-19T07:38:39.051Z,36.24
2017-05-19T07:39:39.068Z,35.47
2017-05-19T07:40:39.143Z,35.19
2017-05-19T07:41:39.179Z,35.09
2017-05-19T07:42:39.234Z,34.89
2017-05-19T07:43:39.282Z,35.37
2017-05-19T07:44:39.330Z,35.83
2017-05-19T07:45:39.383Z,36.3
2017-05-19T07:46:39.422Z,36.46
2017-05-19T07:47:39.460Z,35.99
2017-05-19T07:48:39.500Z,36.29
2017-05-19T07:49:39.543Z,36.5
2017-05-19T07:50:39.609Z,36.11
2017-05-19T07:51:39.653Z,36.14
2017-05-19T07:52:39.690Z,35.09
2017-05-19T07:53:39.752Z,34.15
2017-05-19T07:54:39.796Z,33.7
2017-05-19T07:55:39.856Z,33.8
2017-05-19T07:56:39.890Z,33.52
2017-05-19T07:57:39.945Z,33.03
2017-05-19T07:58:39.988Z,32.94
2017-05-19T07:59:40.037Z,33.14
2017-05-19T08:00:40.062Z,33.03
2017-05-19T08:01:40.181Z,32.93
2017-05-19T08:02:40.177Z,32.82
2017-05-19T08:03:40.198Z,33.5
2017-05-19T08:04:40.270Z,33.01
2017-05-19T08:05:40.326Z,32.53
2017-05-19T08:06:40.368Z,32.82
2017-05-19T08:07:40.423Z,33.11
2017-05-19T08:08:40.475Z,32.91
2017-05-19T08:09:40.503Z,32.81
2017-05-19T08:10:40.559Z,33.01
2017-05-19T08:11:40.591Z,32.3
2017-05-19T08:12:40.674Z,33
2017-05-19T08:13:40.711Z,33.01
2017-05-19T08:14:40.760Z,33.01
2017-05-19T08:15:40.804Z,33.28
2017-05-19T08:16:40.841Z,33.65
2017-05-19T08:17:40.909Z,32.86
2017-05-19T08:18:40.958Z,33.57
2017-05-19T08:19:41.004Z,32.79
2017-05-19T08:20:41.046Z,32.21
2017-05-19T08:21:41.103Z,32.23
2017-05-19T08:22:41.138Z,32.03
2017-05-19T08:23:41.197Z,32.4
2017-05-19T08:24:41.251Z,32.21
2017-05-19T08:25:41.293Z,32.12
2017-05-19T08:26:41.347Z,32.23
2017-05-19T08:27:41.408Z,32.05
2017-05-19T08:28:41.778Z,31.57
2017-05-19T08:29:41.491Z,32.15
2017-05-19T08:30:41.545Z,32.23
2017-05-19T08:31:41.570Z,32.81
2017-05-19T08:32:41.645Z,32.1
2017-05-19T08:33:41.707Z,32.3
2017-05-19T08:34:41.737Z,31.72
2017-05-19T08:35:41.787Z,31.77
2017-05-19T08:36:41.852Z,31.65
2017-05-19T08:37:41.886Z,31.65
2017-05-19T08:38:41.936Z,30.57
2017-05-19T08:39:41.981Z,30.99
2017-05-19T08:40:42.047Z,31.18
2017-05-19T08:41:42.081Z,30.99
2017-05-19T08:42:42.134Z,30.9
2017-05-19T08:43:42.185Z,31
2017-05-19T08:44:42.237Z,31.1
2017-05-19T08:45:42.285Z,31.2
2017-05-19T08:46:42.347Z,30.73
2017-05-19T08:47:42.377Z,30.56
2017-05-19T08:48:42.436Z,30.86
2017-05-19T08:49:42.486Z,30.55
2017-05-19T08:50:42.582Z,30.27
2017-05-19T08:51:42.584Z,29.37
2017-05-19T08:52:42.640Z,29.77
2017-05-19T08:53:42.676Z,30.05
2017-05-19T08:54:42.733Z,29.67
2017-05-19T08:55:42.786Z,29.86
2017-05-19T08:56:42.836Z,29.39
2017-05-19T08:57:42.901Z,29.39
2017-05-19T08:58:43.282Z,30.07
2017-05-19T08:59:42.991Z,29.98
2017-05-19T09:00:43.048Z,29.21
2017-05-19T09:01:43.098Z,29.41
2017-05-19T09:02:43.235Z,30.15
2017-05-19T09:03:43.200Z,31.29
2017-05-19T09:04:43.249Z,31.93
2017-05-19T09:05:43.305Z,32.1
2017-05-19T09:06:43.351Z,32.31
2017-05-19T09:07:43.382Z,30.57
2017-05-19T09:08:43.445Z,30.7
2017-05-19T09:09:43.502Z,30.7
2017-05-19T09:10:43.548Z,30.22
2017-05-19T09:11:43.607Z,30.15
2017-05-19T09:12:43.652Z,29.3
2017-05-19T09:13:43.693Z,28.52
2017-05-19T09:14:43.760Z,28.61
2017-05-19T09:15:44.109Z,29.41
2017-05-19T09:16:43.891Z,28.52
2017-05-19T09:17:43.902Z,28.91
2017-05-19T09:18:43.960Z,29.01
2017-05-19T09:19:44.020Z,28.81
2017-05-19T09:20:44.222Z,27.94
2017-05-19T09:21:44.121Z,28.16
2017-05-19T09:22:44.175Z,28.17
2017-05-19T09:23:44.211Z,27.68
2017-05-19T09:24:44.279Z,27.39
2017-05-19T09:25:44.320Z,27.78
2017-05-19T09:26:44.379Z,27.77
2017-05-19T09:27:44.423Z,27.84
2017-05-19T09:28:44.488Z,28.91
2017-05-19T09:29:44.543Z,29.39
2017-05-19T09:30:44.598Z,29.65
2017-05-19T09:31:44.653Z,29.82
2017-05-19T09:32:44.711Z,30.24
2017-05-19T09:33:44.752Z,29.25
2017-05-19T09:34:44.815Z,29.55
2017-05-19T09:35:44.865Z,28.77
2017-05-19T09:36:44.913Z,28.57
2017-05-19T09:37:44.965Z,28.97
2017-05-19T09:38:45.079Z,29.17
2017-05-19T09:39:45.068Z,29.47
2017-05-19T09:40:45.121Z,28.69
2017-05-19T09:41:45.519Z,29
2017-05-19T09:42:45.218Z,28.7
2017-05-19T09:43:45.276Z,28.41
2017-05-19T09:44:45.319Z,28.31
2017-05-19T09:45:45.391Z,28.23
2017-05-19T09:46:45.442Z,28.23
2017-05-19T09:47:45.491Z,28.42
2017-05-19T09:48:45.550Z,28.42
2017-05-19T09:49:45.596Z,28.22
2017-05-19T09:50:45.658Z,28.42
2017-05-19T09:51:45.715Z,29.01
2017-05-19T09:52:45.833Z,29.1
2017-05-19T09:53:45.822Z,28.53
2017-05-19T09:54:45.877Z,27.75
2017-05-19T09:55:46.262Z,28.45
2017-05-19T09:56:45.955Z,27.97
2017-05-19T09:57:46.022Z,28.17
2017-05-19T09:58:46.421Z,28.05
2017-05-19T09:59:46.140Z,28.25
2017-05-19T10:00:46.201Z,28.45
2017-05-19T10:01:46.251Z,28.57
2017-05-19T10:02:46.364Z,27.78
2017-05-19T10:03:46.356Z,28
2017-05-19T10:04:46.433Z,27.91
2017-05-19T10:05:46.467Z,28.02
2017-05-19T10:06:46.615Z,27.72
2017-05-19T10:07:46.567Z,28
2017-05-19T10:08:46.635Z,28.12
2017-05-19T10:09:46.680Z,27.45
2017-05-19T10:10:46.716Z,27.66
2017-05-19T10:11:46.787Z,27.17
2017-05-19T10:12:46.835Z,27.27
2017-05-19T10:13:46.899Z,26.77
2017-05-19T10:14:46.927Z,27.06
2017-05-19T10:15:46.985Z,27.23
2017-05-19T10:16:47.280Z,27.51
2017-05-19T10:17:47.105Z,28.01
2017-05-19T10:18:47.145Z,27.72
2017-05-19T10:19:47.204Z,27.04
2017-05-19T10:20:47.258Z,27.26
2017-05-19T10:21:47.316Z,27.36
2017-05-19T10:22:47.369Z,26.76
2017-05-19T10:23:47.428Z,27.16
2017-05-19T10:24:47.475Z,27.25
2017-05-19T10:25:47.533Z,27.02
2017-05-19T10:26:47.569Z,27.29
2017-05-19T10:27:47.624Z,27.39
2017-05-19T10:28:47.679Z,27.71
2017-05-19T10:29:47.721Z,27.12
2017-05-19T10:30:47.811Z,27.35
2017-05-19T10:31:47.825Z,26.77
2017-05-19T10:32:47.870Z,26.08
2017-05-19T10:33:47.927Z,26.27
2017-05-19T10:34:47.961Z,26.96
2017-05-19T10:35:48.019Z,27.51
2017-05-19T10:36:48.066Z,27.2
2017-05-19T10:37:48.105Z,27.01
2017-05-19T10:38:48.165Z,26.82
2017-05-19T10:39:48.223Z,26.73
2017-05-19T10:40:48.263Z,27.22
2017-05-19T10:41:48.319Z,27.32
2017-05-19T10:42:48.338Z,27.22
2017-05-19T10:43:48.374Z,27.14
2017-05-19T10:44:48.471Z,26.96
2017-05-19T10:45:48.505Z,26.67
2017-05-19T10:46:48.561Z,26.2
2017-05-19T10:47:48.609Z,26.39
2017-05-19T10:48:48.659Z,25.89
2017-05-19T10:49:49.033Z,26.09
2017-05-19T10:50:48.724Z,26.08
2017-05-19T10:51:48.792Z,26.96
2017-05-19T10:52:48.816Z,26.73
2017-05-19T10:53:48.861Z,26.92
2017-05-19T10:54:48.928Z,27.22
2017-05-19T10:55:48.977Z,27.22
2017-05-19T10:56:49.024Z,27.02
2017-05-19T10:57:49.072Z,27.22
2017-05-19T10:58:49.105Z,26.72
2017-05-19T10:59:49.170Z,26.73
2017-05-19T11:00:49.184Z,26.92
2017-05-19T11:01:49.410Z,27.11
2017-05-19T11:02:49.303Z,27.58
2017-05-19T11:03:49.541Z,27.48
2017-05-19T11:04:49.393Z,27.26
2017-05-19T11:05:49.430Z,27.44
2017-05-19T11:06:49.477Z,27.93
2017-05-19T11:07:49.528Z,27.93
2017-05-19T11:08:49.576Z,27.55
2017-05-19T11:09:49.611Z,27.94
2017-05-19T11:10:49.657Z,28.63
2017-05-19T11:11:49.712Z,28.8
2017-05-19T11:12:49.750Z,28.78
2017-05-19T11:13:49.796Z,28.97
2017-05-19T11:14:49.897Z,28.2
2017-05-19T11:15:49.861Z,28.49
2017-05-19T11:16:49.926Z,28.1
2017-05-19T11:17:49.963Z,28.5
2017-05-19T11:18:50.009Z,29.37
2017-05-19T11:19:50.251Z,29.44
2017-05-19T11:20:50.128Z,29.64
2017-05-19T11:21:50.156Z,30.22
2017-05-19T11:22:50.199Z,30
2017-05-19T11:23:50.246Z,30.68
2017-05-19T11:24:50.493Z,30.55
2017-05-19T11:25:50.339Z,30.33
2017-05-19T11:26:50.841Z,31.11
2017-05-19T11:27:50.412Z,31.18
2017-05-19T11:28:50.648Z,32.17
2017-05-19T11:29:50.941Z,32.85
2017-05-19T11:30:50.757Z,33.59
2017-05-19T11:31:50.591Z,34.82
2017-05-19T11:32:50.639Z,36.15
2017-05-19T11:33:50.667Z,37.95
2017-05-19T11:34:50.732Z,38.98
2017-05-19T11:35:50.962Z,40
2017-05-19T11:36:50.817Z,41.82
2017-05-19T11:37:50.839Z,42.66
2017-05-19T11:38:50.897Z,42.93
2017-05-19T11:39:50.940Z,43.59
2017-05-19T11:40:51.814Z,44.38
2017-05-19T11:41:51.061Z,44.84
2017-05-19T11:42:51.077Z,45.12
2017-05-19T11:43:51.119Z,45.12
2017-05-19T11:44:51.192Z,45.39
2017-05-19T11:45:51.196Z,44.8
2017-05-19T11:46:51.892Z,45.17
2017-05-19T11:47:51.290Z,45.56
2017-05-19T11:48:51.319Z,46.04
2017-05-19T11:49:51.377Z,46.24
2017-05-19T11:50:51.591Z,46.24
2017-05-19T11:51:51.460Z,46.14
2017-05-19T11:52:51.500Z,46.24
2017-05-19T11:53:51.553Z,46.73
2017-05-19T11:54:51.586Z,46.8
2017-05-19T11:55:51.644Z,46.7
2017-05-19T11:56:51.680Z,46.7
2017-05-19T11:57:51.732Z,46.59
2017-05-19T11:58:52.090Z,46.61
2017-05-19T11:59:51.802Z,46.49
2017-05-19T12:00:51.854Z,46.41
2017-05-19T12:01:51.887Z,46.49
2017-05-19T12:02:51.929Z,46.69
2017-05-19T12:03:52.786Z,45.92
2017-05-19T12:04:52.003Z,46.1
2017-05-19T12:05:52.050Z,46.3
2017-05-19T12:06:52.104Z,46.69
2017-05-19T12:07:52.154Z,46.69
2017-05-19T12:08:52.773Z,47.07
2017-05-19T12:09:52.239Z,46.97
2017-05-19T12:10:52.447Z,46.69
2017-05-19T12:11:52.338Z,46.88
2017-05-19T12:12:52.639Z,46.7
2017-05-19T12:13:52.384Z,46.3
2017-05-19T12:14:52.432Z,46.31
2017-05-19T12:15:53.202Z,45.83
2017-05-19T12:16:52.721Z,45.71
2017-05-19T12:17:52.576Z,45.81
2017-05-19T12:18:52.614Z,45.9
2017-05-19T12:19:52.667Z,46.1
2017-05-19T12:20:52.706Z,46.56
2017-05-19T12:21:52.743Z,46.1
2017-05-19T12:22:52.793Z,46.1
2017-05-19T12:23:52.832Z,46.2
2017-05-19T12:24:52.874Z,46.3
2017-05-19T12:25:52.969Z,46.2
2017-05-19T12:26:52.955Z,46
2017-05-19T12:27:53.000Z,45.71
2017-05-19T12:28:53.097Z,45.51
2017-05-19T12:29:53.125Z,45.68
2017-05-19T12:30:53.110Z,46.17
2017-05-19T12:31:53.183Z,46.08
2017-05-19T12:32:53.261Z,46.37
2017-05-19T12:33:53.423Z,46.17
2017-05-19T12:34:53.301Z,46.17
2017-05-19T12:35:53.365Z,46.08
2017-05-19T12:36:53.381Z,46
2017-05-19T12:37:53.430Z,46.08
2017-05-19T12:38:53.460Z,45.78
2017-05-19T12:39:53.507Z,45.9
2017-05-19T12:40:53.536Z,45.68
2017-05-19T12:41:53.579Z,46.08
2017-05-19T12:42:53.692Z,45.1
2017-05-19T12:43:53.679Z,44.93
2017-05-19T12:44:53.712Z,44.81
2017-05-19T12:45:53.775Z,44.81
2017-05-19T12:46:53.876Z,45.39
2017-05-19T12:47:53.839Z,44.9
2017-05-19T12:48:53.888Z,45.1
2017-05-19T12:49:53.937Z,45
2017-05-19T12:50:53.981Z,45
2017-05-19T12:51:54.032Z,44.03
2017-05-19T12:52:54.062Z,44.52
2017-05-19T12:53:54.112Z,44.81
2017-05-19T12:54:54.123Z,45.39
2017-05-19T12:55:54.192Z,45.49
2017-05-19T12:56:54.233Z,45.49
2017-05-19T12:57:54.287Z,45.49